createdAt,value
2023-04-28T00:01:25.809Z,4.30
2023-04-28T00:03:52.760Z,4.30
2023-04-28T00:06:19.101Z,4.30
2023-04-28T00:08:45.265Z,4.40
2023-04-28T00:11:11.484Z,4.50
2023-04-28T00:13:38.115Z,4.50
2023-04-28T00:16:05.295Z,4.50
2023-04-28T00:18:32.919Z,4.60
2023-04-28T00:20:59.727Z,4.60
2023-04-28T00:23:26.026Z,4.60
2023-04-28T00:25:52.544Z,4.60
2023-04-28T00:28:32.938Z,4.60
2023-04-28T00:31:00.709Z,4.50
2023-04-28T00:33:26.842Z,4.50
2023-04-28T00:36:00.177Z,4.50
2023-04-28T00:38:26.613Z,4.40
2023-04-28T00:40:52.830Z,4.30
2023-04-28T00:43:18.962Z,4.30
2023-04-28T00:45:45.159Z,4.20
2023-04-28T00:48:12.144Z,4.20
2023-04-28T00:50:38.291Z,4.10
2023-04-28T00:53:04.408Z,4.00
2023-04-28T00:55:32.171Z,4.00
2023-04-28T00:57:58.615Z,3.90
2023-04-28T01:00:24.741Z,3.90
2023-04-28T01:02:52.152Z,3.90
2023-04-28T01:05:18.576Z,3.90
2023-04-28T01:07:44.752Z,3.80
2023-04-28T01:10:11.118Z,3.80
2023-04-28T01:12:37.327Z,3.80
2023-04-28T01:15:04.075Z,3.80
2023-04-28T01:17:30.283Z,3.80
2023-04-28T01:19:56.500Z,3.90
2023-04-28T01:22:22.667Z,3.90
2023-04-28T01:24:48.870Z,4.00
2023-04-28T01:27:15.866Z,4.10
2023-04-28T01:29:42.038Z,4.20
2023-04-28T01:32:08.162Z,4.20
2023-04-28T01:34:34.292Z,4.20
2023-04-28T01:37:00.500Z,4.20
2023-04-28T01:39:26.839Z,4.30
2023-04-28T01:41:52.973Z,4.20
2023-04-28T01:44:19.359Z,4.30
2023-04-28T01:46:45.752Z,4.30
2023-04-28T01:49:11.950Z,4.30
2023-04-28T01:51:38.256Z,4.30
2023-04-28T01:54:04.504Z,4.40
2023-04-28T01:56:30.661Z,4.40
2023-04-28T01:58:56.856Z,4.30
2023-04-28T02:01:23.055Z,4.30
2023-04-28T02:03:49.866Z,4.30
2023-04-28T02:06:16.061Z,4.30
2023-04-28T02:08:42.279Z,4.30
2023-04-28T02:11:08.416Z,4.30
2023-04-28T02:13:34.657Z,5.70
2023-04-28T02:16:01.753Z,4.30
2023-04-28T02:18:28.105Z,4.40
2023-04-28T02:20:54.207Z,4.40
2023-04-28T02:23:20.336Z,4.30
2023-04-28T02:25:46.490Z,4.40
2023-04-28T02:28:12.679Z,4.30
2023-04-28T02:30:38.855Z,4.40
2023-04-28T02:33:05.135Z,4.40
2023-04-28T02:35:31.341Z,4.40
2023-04-28T02:37:57.551Z,4.40
2023-04-28T02:40:23.711Z,4.40
2023-04-28T02:42:49.859Z,4.40
2023-04-28T02:45:16.234Z,4.40
2023-04-28T02:47:42.560Z,4.40
2023-04-28T02:50:10.148Z,4.50
2023-04-28T02:52:36.371Z,4.50
2023-04-28T02:55:04.010Z,4.40
2023-04-28T02:57:30.413Z,4.50
2023-04-28T02:59:56.686Z,4.50
2023-04-28T03:02:23.092Z,4.50
2023-04-28T03:04:49.827Z,4.50
2023-04-28T03:07:16.387Z,4.50
2023-04-28T03:09:42.505Z,4.90
2023-04-28T03:12:08.640Z,4.50
2023-04-28T03:14:34.776Z,4.40
2023-04-28T03:17:01.313Z,4.40
2023-04-28T03:19:27.467Z,4.40
2023-04-28T03:21:53.666Z,4.40
2023-04-28T03:24:20.359Z,4.30
2023-04-28T03:26:46.521Z,4.30
2023-04-28T03:29:12.740Z,4.30
2023-04-28T03:31:38.980Z,4.30
2023-04-28T03:34:05.219Z,4.30
2023-04-28T03:36:31.345Z,4.30
2023-04-28T03:38:57.544Z,4.30
2023-04-28T03:41:23.664Z,4.30
2023-04-28T03:43:51.276Z,4.30
2023-04-28T03:46:17.497Z,4.30
2023-04-28T03:48:45.471Z,4.20
2023-04-28T03:51:11.774Z,4.30
2023-04-28T03:53:38.040Z,4.20
2023-04-28T03:56:05.041Z,4.30
2023-04-28T03:58:31.240Z,4.30
2023-04-28T04:00:57.479Z,4.40
2023-04-28T04:03:25.671Z,4.50
2023-04-28T04:05:52.913Z,4.50
2023-04-28T04:08:19.316Z,4.60
2023-04-28T04:10:45.500Z,4.80
2023-04-28T04:13:11.754Z,4.90
2023-04-28T04:15:38.039Z,5.00
2023-04-28T04:18:04.753Z,5.60
2023-04-28T04:20:30.919Z,6.30
2023-04-28T04:22:57.192Z,6.90
2023-04-28T04:25:23.535Z,7.40
2023-04-28T04:27:49.834Z,7.70
2023-04-28T04:30:16.275Z,7.70
2023-04-28T04:32:42.612Z,7.70
2023-04-28T04:35:09.335Z,7.60
2023-04-28T04:37:35.560Z,7.30
2023-04-28T04:40:02.514Z,7.40
2023-04-28T04:42:29.441Z,7.40
2023-04-28T04:44:55.553Z,7.10
2023-04-28T04:47:21.729Z,6.90
2023-04-28T04:49:49.241Z,6.80
2023-04-28T04:52:15.585Z,6.70
2023-04-28T04:54:41.743Z,6.80
2023-04-28T04:57:08.007Z,6.70
2023-04-28T04:59:34.177Z,6.60
2023-04-28T05:02:00.496Z,6.60
2023-04-28T05:04:26.817Z,6.60
2023-04-28T05:06:53.087Z,6.50
2023-04-28T05:09:19.278Z,6.50
2023-04-28T05:11:45.828Z,6.40
2023-04-28T05:14:11.986Z,6.50
2023-04-28T05:16:38.564Z,6.50
2023-04-28T05:19:04.769Z,6.50
2023-04-28T05:21:31.956Z,6.60
2023-04-28T05:23:58.118Z,6.70
2023-04-28T05:26:24.254Z,6.90
2023-04-28T05:28:50.721Z,6.90
2023-04-28T05:31:16.909Z,6.90
2023-04-28T05:33:43.087Z,7.00
2023-04-28T05:36:09.228Z,7.10
2023-04-28T05:38:35.437Z,7.20
2023-04-28T05:41:01.768Z,7.30
2023-04-28T05:43:28.012Z,7.40
2023-04-28T05:45:54.472Z,7.40
2023-04-28T05:48:20.803Z,7.60
2023-04-28T05:50:47.412Z,7.70
2023-04-28T05:53:13.677Z,7.90
2023-04-28T05:55:40.165Z,8.10
2023-04-28T05:58:07.449Z,8.00
2023-04-28T06:00:33.824Z,8.10
2023-04-28T06:03:03.168Z,8.40
2023-04-28T06:05:29.737Z,8.40
2023-04-28T06:07:56.284Z,8.50
2023-04-28T06:10:23.058Z,8.50
2023-04-28T06:12:49.560Z,8.40
2023-04-28T06:15:15.933Z,8.70
2023-04-28T06:17:42.277Z,9.10
2023-04-28T06:20:10.575Z,9.50
2023-04-28T06:22:37.315Z,10.20
2023-04-28T06:25:04.247Z,10.70
2023-04-28T06:27:32.215Z,11.60
2023-04-28T06:29:58.817Z,11.70
2023-04-28T06:32:25.043Z,12.90
2023-04-28T06:34:51.314Z,12.80
2023-04-28T06:37:18.320Z,13.10
2023-04-28T06:39:45.213Z,13.60
2023-04-28T06:42:11.405Z,14.60
2023-04-28T06:44:37.737Z,15.40
2023-04-28T06:47:04.158Z,16.40
2023-04-28T06:49:30.673Z,15.80
2023-04-28T06:51:56.908Z,16.00
2023-04-28T06:54:23.245Z,15.40
2023-04-28T06:56:49.466Z,14.60
2023-04-28T06:59:15.673Z,13.90
2023-04-28T07:01:41.871Z,12.10
2023-04-28T07:04:08.213Z,12.40
2023-04-28T07:06:35.117Z,12.10
2023-04-28T07:09:01.317Z,11.80
2023-04-28T07:11:27.505Z,12.00
2023-04-28T07:13:53.702Z,12.30
2023-04-28T07:16:21.308Z,12.40
2023-04-28T07:18:47.614Z,12.50
2023-04-28T07:21:13.915Z,13.40
2023-04-28T07:23:40.305Z,14.20
2023-04-28T07:26:06.678Z,14.30
2023-04-28T07:28:33.346Z,13.90
2023-04-28T07:30:59.675Z,14.30
2023-04-28T07:33:25.930Z,15.10
2023-04-28T07:35:52.418Z,15.20
2023-04-28T07:38:19.859Z,16.60
2023-04-28T07:40:46.631Z,16.40
2023-04-28T07:43:13.318Z,17.20
2023-04-28T07:45:39.710Z,17.20
2023-04-28T07:48:06.032Z,17.90
2023-04-28T07:50:32.507Z,16.30
2023-04-28T07:52:58.746Z,18.40
2023-04-28T07:55:24.947Z,17.40
2023-04-28T07:57:51.198Z,17.60
2023-04-28T08:00:18.790Z,18.20
2023-04-28T08:02:45.184Z,18.20
2023-04-28T08:05:11.777Z,20.40
2023-04-28T08:07:38.250Z,20.70
2023-04-28T08:10:05.352Z,20.80
2023-04-28T08:12:32.109Z,20.70
2023-04-28T08:14:58.311Z,21.00
2023-04-28T08:17:24.623Z,21.00
2023-04-28T08:19:50.855Z,21.00
2023-04-28T08:22:17.154Z,20.00
2023-04-28T08:24:43.376Z,19.60
2023-04-28T08:27:09.605Z,19.00
2023-04-28T08:29:35.805Z,19.10
2023-04-28T08:32:02.059Z,18.70
2023-04-28T08:34:28.665Z,18.00
2023-04-28T08:36:54.949Z,18.10
2023-04-28T08:39:22.910Z,18.40
2023-04-28T08:41:50.054Z,17.90
2023-04-28T08:44:16.930Z,18.90
2023-04-28T08:46:43.799Z,19.40
2023-04-28T08:49:17.791Z,19.70
2023-04-28T08:51:54.613Z,19.90
2023-04-28T08:54:26.622Z,19.00
2023-04-28T08:56:53.754Z,19.40
2023-04-28T08:59:20.008Z,21.00
2023-04-28T09:01:48.902Z,20.80
2023-04-28T09:04:19.845Z,21.60
2023-04-28T09:06:47.142Z,22.20
2023-04-28T09:09:46.667Z,22.20
2023-04-28T09:12:13.430Z,21.40
2023-04-28T09:14:39.653Z,22.10
2023-04-28T09:17:12.546Z,22.10
2023-04-28T09:19:38.936Z,22.10
2023-04-28T09:22:17.575Z,22.30
2023-04-28T09:24:52.377Z,22.50
2023-04-28T09:27:21.053Z,21.90
2023-04-28T09:29:52.366Z,20.50
2023-04-28T09:32:20.942Z,21.80
2023-04-28T09:34:53.080Z,21.90
2023-04-28T09:37:23.296Z,22.00
2023-04-28T09:39:53.910Z,22.60
2023-04-28T09:42:42.082Z,22.00
2023-04-28T09:45:15.122Z,22.10
2023-04-28T09:47:42.785Z,21.90
2023-04-28T09:50:12.099Z,21.70
2023-04-28T09:52:38.348Z,21.70
2023-04-28T09:55:06.043Z,21.40
2023-04-28T09:57:33.319Z,21.50
2023-04-28T09:59:59.691Z,21.90
2023-04-28T10:02:42.575Z,21.80
2023-04-28T10:05:11.195Z,21.80
2023-04-28T10:07:38.330Z,21.40
2023-04-28T10:10:05.737Z,21.60
2023-04-28T10:12:31.948Z,21.70
2023-04-28T10:14:59.089Z,21.20
2023-04-28T10:17:25.766Z,21.00
2023-04-28T10:19:53.186Z,21.20
2023-04-28T10:22:59.956Z,21.00
2023-04-28T10:25:35.679Z,21.10
2023-04-28T10:28:05.705Z,21.10
2023-04-28T10:30:32.430Z,21.10
2023-04-28T10:36:46.702Z,21.20
2023-04-28T10:39:13.578Z,21.10
2023-04-28T10:41:40.075Z,21.20
2023-04-28T10:44:43.277Z,21.40
2023-04-28T10:47:10.047Z,20.90
2023-04-28T10:56:26.182Z,21.00
2023-04-28T10:58:58.934Z,21.10
2023-04-28T11:01:30.243Z,21.20
2023-04-28T11:04:02.338Z,20.70
2023-04-28T11:06:39.510Z,21.10
2023-04-28T11:10:07.080Z,20.90
2023-04-28T11:12:33.261Z,20.70
2023-04-28T11:15:11.220Z,20.90
2023-04-28T11:17:41.339Z,20.80
2023-04-28T11:20:08.550Z,20.90
2023-04-28T11:22:34.782Z,20.90
2023-04-28T11:25:02.221Z,21.10
2023-04-28T11:27:30.108Z,21.40
2023-04-28T11:29:56.599Z,21.50
2023-04-28T11:32:27.838Z,21.70
2023-04-28T11:34:53.997Z,21.50
2023-04-28T11:37:23.370Z,21.00
2023-04-28T11:39:50.013Z,20.70
2023-04-28T11:42:16.822Z,21.40
2023-04-28T11:44:52.268Z,21.60
2023-04-28T11:47:32.234Z,21.70
2023-04-28T11:49:58.574Z,21.90
2023-04-28T11:52:26.657Z,22.10
2023-04-28T11:54:54.618Z,21.40
2023-04-28T11:57:21.035Z,21.80
2023-04-28T11:59:47.503Z,21.10
2023-04-28T12:02:14.273Z,21.20
2023-04-28T12:04:41.677Z,22.00
2023-04-28T12:07:15.555Z,21.70
2023-04-28T12:09:46.617Z,21.90
2023-04-28T12:12:15.062Z,21.60
2023-04-28T12:15:01.271Z,21.30
2023-04-28T12:17:38.416Z,21.40
2023-04-28T12:20:07.770Z,21.50
2023-04-28T12:22:52.548Z,21.60
2023-04-28T12:25:18.916Z,21.50
2023-04-28T12:28:05.252Z,21.10
2023-04-28T12:30:33.059Z,21.60
2023-04-28T12:32:59.473Z,20.90
2023-04-28T12:35:26.429Z,20.30
2023-04-28T12:37:53.124Z,20.60
2023-04-28T12:40:19.450Z,20.20
2023-04-28T12:42:45.599Z,20.70
2023-04-28T12:45:12.099Z,20.40
2023-04-28T12:47:39.170Z,18.80
2023-04-28T12:50:06.793Z,19.90
2023-04-28T12:52:34.912Z,20.20
2023-04-28T12:55:01.965Z,20.10
2023-04-28T12:57:28.881Z,20.10
2023-04-28T12:59:56.454Z,20.10
2023-04-28T13:02:23.165Z,20.30
2023-04-28T13:04:51.329Z,20.50
2023-04-28T13:07:17.733Z,20.40
2023-04-28T13:09:44.422Z,20.10
2023-04-28T13:12:14.018Z,19.70
2023-04-28T13:14:40.190Z,19.90
2023-04-28T13:17:06.397Z,20.60
2023-04-28T13:19:33.959Z,21.20
2023-04-28T13:22:00.903Z,21.40
2023-04-28T13:24:27.139Z,21.70
2023-04-28T13:26:53.320Z,21.80
2023-04-28T13:29:19.817Z,22.40
2023-04-28T13:31:46.145Z,22.50
2023-04-28T13:34:16.825Z,22.40
2023-04-28T13:36:47.462Z,22.20
2023-04-28T13:39:14.029Z,22.50
2023-04-28T13:41:40.353Z,22.00
2023-04-28T13:44:06.525Z,21.20
2023-04-28T13:46:32.949Z,20.80
2023-04-28T13:48:59.547Z,21.20
2023-04-28T13:51:25.701Z,21.30
2023-04-28T13:53:52.003Z,21.10
2023-04-28T13:56:18.138Z,21.30
2023-04-28T13:58:44.321Z,21.40
2023-04-28T14:01:11.194Z,21.40
2023-04-28T14:03:37.571Z,21.50
2023-04-28T14:06:04.647Z,21.20
2023-04-28T14:08:30.934Z,21.30
2023-04-28T14:10:57.057Z,21.20
2023-04-28T14:13:24.194Z,21.10
2023-04-28T14:15:59.656Z,21.30
2023-04-28T14:18:26.872Z,21.00
2023-04-28T14:20:53.681Z,21.20
2023-04-28T14:23:20.431Z,21.10
2023-04-28T14:25:46.605Z,20.50
2023-04-28T14:28:12.746Z,20.30
2023-04-28T14:30:38.895Z,20.20
2023-04-28T14:33:05.091Z,21.60
2023-04-28T14:35:31.882Z,19.10
2023-04-28T14:37:58.352Z,19.20
2023-04-28T14:40:25.032Z,19.70
2023-04-28T14:42:52.183Z,20.10
2023-04-28T14:45:18.457Z,20.20
2023-04-28T14:47:44.961Z,20.10
2023-04-28T14:50:13.159Z,19.30
2023-04-28T14:52:40.487Z,19.30
2023-04-28T14:55:07.879Z,18.90
2023-04-28T14:57:34.429Z,18.40
2023-04-28T15:00:01.194Z,18.40
2023-04-28T15:02:28.902Z,18.30
2023-04-28T15:04:56.429Z,18.20
2023-04-28T15:07:23.049Z,18.20
2023-04-28T15:09:49.658Z,18.00
2023-04-28T15:12:15.859Z,17.90
2023-04-28T15:14:42.145Z,17.90
2023-04-28T15:17:09.394Z,17.80
2023-04-28T15:19:36.245Z,17.80
2023-04-28T15:22:03.082Z,17.80
2023-04-28T15:24:29.302Z,17.80
2023-04-28T15:26:56.128Z,17.90
2023-04-28T15:29:23.284Z,17.80
2023-04-28T15:31:49.749Z,17.60
2023-04-28T15:34:16.072Z,17.70
2023-04-28T15:36:42.962Z,17.70
2023-04-28T15:39:09.602Z,17.60
2023-04-28T15:41:35.886Z,17.60
2023-04-28T15:44:02.098Z,17.60
2023-04-28T15:46:28.763Z,17.30
2023-04-28T15:48:54.935Z,17.20
2023-04-28T15:51:21.310Z,17.10
2023-04-28T15:53:49.922Z,17.50
2023-04-28T15:56:19.741Z,17.20
2023-04-28T15:58:47.144Z,17.10
2023-04-28T16:01:13.804Z,17.20
2023-04-28T16:03:40.334Z,17.20
2023-04-28T16:06:07.526Z,17.20
2023-04-28T16:08:34.885Z,17.30
2023-04-28T16:11:09.725Z,17.40
2023-04-28T16:13:36.488Z,17.40
2023-04-28T16:16:03.849Z,17.30
2023-04-28T16:18:30.130Z,17.30
2023-04-28T16:20:56.944Z,17.20
2023-04-28T16:23:23.448Z,17.10
2023-04-28T16:25:50.431Z,17.10
2023-04-28T16:28:17.059Z,17.00
2023-04-28T16:30:43.425Z,16.80
2023-04-28T16:33:09.637Z,16.80
2023-04-28T16:35:36.281Z,16.60
2023-04-28T16:38:02.428Z,16.50
2023-04-28T16:40:29.544Z,16.40
2023-04-28T16:42:56.232Z,16.30
2023-04-28T16:45:22.948Z,16.20
2023-04-28T16:47:49.425Z,16.10
2023-04-28T16:50:16.621Z,17.70
2023-04-28T16:52:42.820Z,16.00
2023-04-28T16:55:10.122Z,16.00
2023-04-28T16:57:36.638Z,16.00
2023-04-28T17:00:04.345Z,15.90
2023-04-28T17:02:31.939Z,15.80
2023-04-28T17:04:58.396Z,15.70
2023-04-28T17:07:25.691Z,15.60
2023-04-28T17:09:52.288Z,15.40
2023-04-28T17:12:20.574Z,15.30
2023-04-28T17:14:47.035Z,15.20
2023-04-28T17:17:13.778Z,15.10
2023-04-28T17:19:41.411Z,15.10
2023-04-28T17:22:07.568Z,15.10
2023-04-28T17:24:33.804Z,15.00
2023-04-28T17:27:00.462Z,15.00
2023-04-28T17:29:27.465Z,15.00
2023-04-28T17:31:53.820Z,15.00
2023-04-28T17:34:20.637Z,15.00
2023-04-28T17:36:47.586Z,15.10
2023-04-28T17:39:15.558Z,14.90
2023-04-28T17:41:44.641Z,14.90
2023-04-28T17:44:11.179Z,14.80
2023-04-28T17:46:38.425Z,14.70
2023-04-28T17:49:04.758Z,14.60
2023-04-28T17:51:31.697Z,14.60
2023-04-28T17:53:58.068Z,14.50
2023-04-28T17:56:24.283Z,14.50
2023-04-28T17:58:51.719Z,14.40
2023-04-28T18:01:18.242Z,14.40
2023-04-28T18:03:46.081Z,14.40
2023-04-28T18:06:13.093Z,14.30
2023-04-28T18:08:40.469Z,14.20
2023-04-28T18:11:09.159Z,14.10
2023-04-28T18:13:35.568Z,14.00
2023-04-28T18:16:03.935Z,13.90
2023-04-28T18:18:31.594Z,13.70
2023-04-28T18:21:00.177Z,13.50
2023-04-28T18:23:27.016Z,13.30
2023-04-28T18:25:53.216Z,13.10
2023-04-28T18:28:19.511Z,12.90
2023-04-28T18:30:46.547Z,12.70
2023-04-28T18:33:12.902Z,12.50
2023-04-28T18:35:39.911Z,12.40
2023-04-28T18:38:06.695Z,12.20
2023-04-28T18:40:38.314Z,12.00
2023-04-28T18:43:08.010Z,12.00
2023-04-28T18:45:35.166Z,11.80
2023-04-28T18:48:03.134Z,11.90
2023-04-28T18:50:30.539Z,11.80
2023-04-28T18:52:58.795Z,11.80
2023-04-28T18:55:25.450Z,11.70
2023-04-28T18:57:52.612Z,11.60
2023-04-28T19:00:20.082Z,11.60
2023-04-28T19:02:47.789Z,11.60
2023-04-28T19:05:14.301Z,11.60
2023-04-28T19:07:43.388Z,11.60
2023-04-28T19:10:10.263Z,11.60
2023-04-28T19:12:36.649Z,11.60
2023-04-28T19:15:03.067Z,11.70
2023-04-28T19:17:29.961Z,11.80
2023-04-28T19:19:56.938Z,11.80
2023-04-28T19:22:40.597Z,11.80
2023-04-28T19:25:07.688Z,11.90
2023-04-28T19:27:38.765Z,11.90
2023-04-28T19:30:07.052Z,11.90
2023-04-28T19:32:33.855Z,11.90
2023-04-28T19:35:00.483Z,11.90
2023-04-28T19:37:28.212Z,11.90
2023-04-28T19:39:55.183Z,12.00
2023-04-28T19:42:26.362Z,12.00
2023-04-28T19:44:56.795Z,11.90
2023-04-28T19:47:26.991Z,11.90
2023-04-28T19:49:53.926Z,11.90
2023-04-28T19:52:21.067Z,11.90
2023-04-28T19:54:50.938Z,11.90
2023-04-28T19:57:17.962Z,11.90
2023-04-28T19:59:48.144Z,11.90
2023-04-28T20:02:15.460Z,11.90
2023-04-28T20:04:42.158Z,11.80
2023-04-28T20:07:09.359Z,11.80
2023-04-28T20:09:35.940Z,11.80
2023-04-28T20:12:06.954Z,11.70
2023-04-28T20:14:33.635Z,11.70
2023-04-28T20:17:01.328Z,11.60
2023-04-28T20:19:27.592Z,11.50
2023-04-28T20:21:54.028Z,11.40
2023-04-28T20:24:20.198Z,11.50
2023-04-28T20:26:47.241Z,11.40
2023-04-28T20:29:13.857Z,11.40
2023-04-28T20:31:40.106Z,11.40
2023-04-28T20:34:08.188Z,11.30
2023-04-28T20:36:34.374Z,11.30
2023-04-28T20:39:00.653Z,11.30
2023-04-28T20:41:26.955Z,11.20
2023-04-28T20:43:53.773Z,11.20
2023-04-28T20:46:21.157Z,11.20
2023-04-28T20:48:47.411Z,12.90
2023-04-28T20:51:13.673Z,11.10
2023-04-28T20:53:40.129Z,11.00
2023-04-28T20:56:06.397Z,10.90
2023-04-28T20:58:32.867Z,10.90
2023-04-28T21:00:59.120Z,11.00
2023-04-28T21:03:25.640Z,11.80
2023-04-28T21:05:52.047Z,11.00
2023-04-28T21:08:18.171Z,11.00
2023-04-28T21:10:44.608Z,11.00
2023-04-28T21:13:12.272Z,11.00
2023-04-28T21:15:38.875Z,10.90
2023-04-28T21:18:05.242Z,10.90
2023-04-28T21:20:32.140Z,10.80
2023-04-28T21:22:58.288Z,10.90
2023-04-28T21:25:27.490Z,10.90
2023-04-28T21:27:53.713Z,10.90
2023-04-28T21:30:21.460Z,10.80
2023-04-28T21:32:47.873Z,10.80
2023-04-28T21:35:16.053Z,10.80
2023-04-28T21:37:42.415Z,10.80
2023-04-28T21:40:09.142Z,10.90
2023-04-28T21:42:35.345Z,10.90
2023-04-28T21:45:01.908Z,10.90
2023-04-28T21:47:29.001Z,10.90
2023-04-28T21:49:55.665Z,10.80
2023-04-28T21:52:21.857Z,10.80
2023-04-28T21:54:48.088Z,10.90
2023-04-28T21:57:15.070Z,10.80
2023-04-28T21:59:41.297Z,11.80
2023-04-28T22:02:07.538Z,10.80
2023-04-28T22:04:33.887Z,10.80
2023-04-28T22:07:00.499Z,9.00
2023-04-28T22:09:27.712Z,10.80
2023-04-28T22:11:54.113Z,10.80
2023-04-28T22:14:38.649Z,10.70
2023-04-28T22:17:06.492Z,10.70
2023-04-28T22:19:33.170Z,10.70
2023-04-28T22:21:59.380Z,10.70
2023-04-28T22:24:25.535Z,10.70
2023-04-28T22:26:52.280Z,10.70
2023-04-28T22:29:19.285Z,10.70
2023-04-28T22:31:46.022Z,10.60
2023-04-28T22:34:12.304Z,10.70
2023-04-28T22:36:38.511Z,10.70
2023-04-28T22:39:05.035Z,10.50
2023-04-28T22:41:31.286Z,11.20
2023-04-28T22:43:57.493Z,10.40
2023-04-28T22:46:23.732Z,10.40
2023-04-28T22:48:50.292Z,10.30
2023-04-28T22:51:16.949Z,10.20
2023-04-28T22:53:43.185Z,10.20
2023-04-28T22:56:09.464Z,10.20
2023-04-28T22:58:35.634Z,10.20
2023-04-28T23:01:03.620Z,10.10
2023-04-28T23:03:29.959Z,10.10
2023-04-28T23:05:56.222Z,10.10
2023-04-28T23:08:22.658Z,10.10
2023-04-28T23:10:49.062Z,10.10
2023-04-28T23:13:15.219Z,9.80
2023-04-28T23:15:41.401Z,10.20
2023-04-28T23:18:07.545Z,10.20
2023-04-28T23:20:34.148Z,10.20
2023-04-28T23:23:00.314Z,10.20
2023-04-28T23:25:26.525Z,10.20
2023-04-28T23:27:52.686Z,10.20
2023-04-28T23:30:18.970Z,10.30
2023-04-28T23:32:45.174Z,10.20
2023-04-28T23:35:11.532Z,10.30
2023-04-28T23:37:37.778Z,10.20
2023-04-28T23:40:05.093Z,10.30
2023-04-28T23:42:31.284Z,10.30
2023-04-28T23:44:58.372Z,10.40
2023-04-28T23:47:24.574Z,10.30
2023-04-28T23:49:50.882Z,10.40
2023-04-28T23:52:18.659Z,10.40
2023-04-28T23:54:44.950Z,10.40
2023-04-28T23:57:11.245Z,10.40
2023-04-28T23:59:37.415Z,10.40
